createdAt,value
2018-07-21T00:02:09.235Z,18.79
2018-07-21T00:04:43.797Z,18.73
2018-07-21T00:07:18.399Z,18.68
2018-07-21T00:09:52.907Z,18.66
2018-07-21T00:12:27.712Z,18.69
2018-07-21T00:15:02.173Z,18.61
2018-07-21T00:17:36.813Z,18.53
2018-07-21T00:20:11.381Z,18.50
2018-07-21T00:22:45.889Z,18.48
2018-07-21T00:25:20.369Z,18.52
2018-07-21T00:27:54.982Z,18.54
2018-07-21T00:30:29.457Z,18.54
2018-07-21T00:33:03.996Z,18.53
2018-07-21T00:35:38.457Z,18.48
2018-07-21T00:38:13.644Z,18.46
2018-07-21T00:40:48.236Z,18.47
2018-07-21T00:43:22.594Z,18.43
2018-07-21T00:45:57.222Z,18.45
2018-07-21T00:48:31.950Z,18.47
2018-07-21T00:51:06.481Z,18.42
2018-07-21T00:53:41.077Z,18.34
2018-07-21T00:56:15.706Z,18.34
2018-07-21T00:58:50.120Z,18.31
2018-07-21T01:01:24.688Z,18.29
2018-07-21T01:03:59.116Z,18.33
2018-07-21T01:06:33.702Z,18.37
2018-07-21T01:09:09.758Z,18.37
2018-07-21T01:11:44.222Z,18.35
2018-07-21T01:14:18.774Z,18.34
2018-07-21T01:16:53.386Z,18.34
2018-07-21T01:19:27.850Z,18.35
2018-07-21T01:22:02.429Z,18.33
2018-07-21T01:24:36.932Z,18.50
2018-07-21T01:27:11.433Z,18.53
2018-07-21T01:29:46.088Z,18.56
2018-07-21T01:32:20.824Z,18.55
2018-07-21T01:34:55.473Z,18.59
2018-07-21T01:37:29.972Z,18.57
2018-07-21T01:40:04.689Z,18.67
2018-07-21T01:42:39.436Z,18.77
2018-07-21T01:45:14.047Z,18.79
2018-07-21T01:47:48.717Z,18.76
2018-07-21T01:50:23.244Z,18.69
2018-07-21T01:52:57.944Z,18.61
2018-07-21T01:55:32.568Z,18.44
2018-07-21T01:58:07.299Z,18.42
2018-07-21T02:00:41.822Z,18.37
2018-07-21T02:03:16.321Z,18.25
2018-07-21T02:05:50.810Z,18.16
2018-07-21T02:08:25.504Z,18.18
2018-07-21T02:11:00.146Z,18.10
2018-07-21T02:13:34.686Z,18.02
2018-07-21T02:16:09.323Z,18.06
2018-07-21T02:18:43.892Z,18.05
2018-07-21T02:21:18.333Z,18.07
2018-07-21T02:23:52.888Z,18.00
2018-07-21T02:26:27.878Z,17.94
2018-07-21T02:35:00.701Z,17.65
2018-07-21T02:37:35.126Z,17.57
2018-07-21T02:40:09.687Z,17.52
2018-07-21T02:42:44.555Z,17.50
2018-07-21T02:45:19.168Z,17.52
2018-07-21T02:47:57.525Z,17.48
2018-07-21T02:50:31.964Z,17.41
2018-07-21T02:53:06.494Z,17.36
2018-07-21T02:55:41.420Z,17.47
2018-07-21T02:58:16.070Z,17.50
2018-07-21T03:00:50.743Z,17.50
2018-07-21T03:03:25.510Z,17.48
2018-07-21T03:06:00.143Z,17.52
2018-07-21T03:08:34.557Z,17.52
2018-07-21T03:11:09.324Z,17.50
2018-07-21T03:13:43.880Z,17.61
2018-07-21T03:16:18.819Z,17.54
2018-07-21T03:18:53.329Z,17.54
2018-07-21T03:21:27.940Z,17.45
2018-07-21T03:24:02.725Z,17.41
2018-07-21T03:26:37.552Z,17.35
2018-07-21T03:29:12.320Z,17.42
2018-07-21T03:31:46.857Z,17.42
2018-07-21T03:34:21.398Z,17.35
2018-07-21T03:36:55.856Z,17.31
2018-07-21T03:39:30.607Z,17.37
2018-07-21T03:42:05.585Z,17.54
2018-07-21T03:44:40.237Z,17.65
2018-07-21T03:47:14.924Z,17.67
2018-07-21T03:49:49.420Z,17.65
2018-07-21T03:52:24.047Z,17.61
2018-07-21T03:54:58.652Z,17.54
2018-07-21T03:57:33.048Z,17.46
2018-07-21T04:00:07.564Z,17.46
2018-07-21T04:02:41.852Z,17.42
2018-07-21T04:05:16.440Z,17.23
2018-07-21T04:07:51.292Z,17.12
2018-07-21T04:10:26.036Z,17.17
2018-07-21T04:13:00.640Z,17.13
2018-07-21T04:15:35.189Z,17.00
2018-07-21T04:18:09.632Z,16.88
2018-07-21T04:20:44.259Z,16.83
2018-07-21T04:23:18.763Z,16.74
2018-07-21T04:25:53.276Z,16.63
2018-07-21T04:28:27.687Z,16.56
2018-07-21T04:31:02.375Z,16.46
2018-07-21T04:33:36.984Z,16.43
2018-07-21T04:36:11.424Z,16.35
2018-07-21T04:38:46.301Z,16.35
2018-07-21T04:41:20.831Z,16.31
2018-07-21T04:43:55.900Z,16.32
2018-07-21T04:46:30.715Z,16.30
2018-07-21T04:52:20.716Z,16.28
2018-07-21T04:54:55.457Z,16.32
2018-07-21T04:57:52.880Z,16.42
2018-07-21T05:00:33.056Z,16.46
2018-07-21T05:03:07.743Z,16.49
2018-07-21T05:05:42.304Z,16.49
2018-07-21T05:08:31.480Z,16.53
2018-07-21T05:11:13.039Z,16.53
2018-07-21T05:13:47.974Z,16.54
2018-07-21T05:16:25.832Z,16.58
2018-07-21T05:19:00.464Z,16.64
2018-07-21T05:21:34.896Z,16.67
2018-07-21T05:24:09.324Z,16.68
2018-07-21T05:26:43.740Z,16.71
2018-07-21T05:29:18.276Z,16.71
2018-07-21T05:31:52.984Z,16.71
2018-07-21T05:34:27.504Z,16.75
2018-07-21T05:37:02.085Z,16.75
2018-07-21T05:39:36.686Z,16.72
2018-07-21T05:42:11.341Z,16.76
2018-07-21T05:44:46.027Z,16.88
2018-07-21T05:47:20.634Z,17.05
2018-07-21T05:50:00.988Z,17.34
2018-07-21T05:52:57.991Z,17.65
2018-07-21T05:55:32.497Z,18.00
2018-07-21T05:58:07.210Z,18.43
2018-07-21T06:00:41.885Z,18.75
2018-07-21T06:03:16.544Z,19.03
2018-07-21T06:05:51.000Z,18.97
2018-07-21T06:08:25.551Z,19.07
2018-07-21T06:11:00.172Z,19.00
2018-07-21T06:13:34.632Z,18.89
2018-07-21T06:16:09.347Z,18.89
2018-07-21T06:18:43.899Z,18.91
2018-07-21T06:21:18.397Z,18.84
2018-07-21T06:23:53.215Z,18.88
2018-07-21T06:26:27.857Z,19.01
2018-07-21T06:29:02.768Z,19.12
2018-07-21T06:31:37.434Z,19.33
2018-07-21T06:34:12.076Z,19.59
2018-07-21T06:36:46.579Z,19.80
2018-07-21T06:39:21.140Z,19.88
2018-07-21T06:41:55.754Z,19.81
2018-07-21T06:44:30.673Z,19.67
2018-07-21T06:47:05.376Z,19.65
2018-07-21T06:49:39.921Z,20.19
2018-07-21T06:52:14.496Z,20.81
2018-07-21T06:54:49.040Z,21.16
2018-07-21T06:57:23.578Z,21.31
2018-07-21T06:59:58.033Z,21.36
2018-07-21T07:02:32.650Z,21.53
2018-07-21T07:05:07.828Z,21.69
2018-07-21T07:07:42.434Z,22.57
2018-07-21T07:10:17.125Z,22.55
2018-07-21T07:12:51.604Z,22.78
2018-07-21T07:15:26.158Z,23.19
2018-07-21T07:18:00.708Z,23.60
2018-07-21T07:20:35.100Z,23.59
2018-07-21T07:23:09.735Z,25.03
2018-07-21T07:25:44.412Z,25.63
2018-07-21T07:28:18.980Z,25.56
2018-07-21T07:30:53.653Z,24.86
2018-07-21T07:33:28.163Z,25.30
2018-07-21T07:36:02.473Z,26.68
2018-07-21T07:38:37.146Z,26.18
2018-07-21T07:41:11.535Z,25.20
2018-07-21T07:43:46.095Z,24.34
2018-07-21T07:46:20.426Z,24.66
2018-07-21T07:48:54.767Z,24.84
2018-07-21T07:51:29.111Z,24.09
2018-07-21T07:54:03.516Z,24.87
2018-07-21T07:56:41.350Z,25.33
2018-07-21T07:59:15.710Z,26.34
2018-07-21T08:01:50.046Z,27.21
2018-07-21T08:04:24.704Z,26.67
2018-07-21T08:06:59.189Z,25.98
2018-07-21T08:09:33.641Z,25.87
2018-07-21T08:12:08.147Z,25.76
2018-07-21T08:14:42.613Z,25.29
2018-07-21T08:17:17.092Z,25.49
2018-07-21T08:19:51.577Z,27.01
2018-07-21T08:22:26.124Z,28.95
2018-07-21T08:25:00.688Z,30.70
2018-07-21T08:27:35.114Z,30.86
2018-07-21T08:30:10.745Z,29.47
2018-07-21T08:32:45.373Z,29.73
2018-07-21T08:35:19.811Z,32.02
2018-07-21T08:37:54.368Z,32.23
2018-07-21T08:40:28.830Z,34.11
2018-07-21T08:43:03.388Z,33.98
2018-07-21T08:45:37.939Z,34.74
2018-07-21T08:48:12.358Z,33.71
2018-07-21T08:50:46.698Z,32.86
2018-07-21T08:53:21.118Z,32.89
2018-07-21T08:55:55.494Z,35.28
2018-07-21T08:58:29.866Z,35.00
2018-07-21T09:01:04.222Z,33.26
2018-07-21T09:03:43.813Z,34.41
2018-07-21T09:06:18.488Z,34.06
2018-07-21T09:08:53.012Z,35.77
2018-07-21T09:11:27.400Z,34.91
2018-07-21T09:14:01.619Z,34.51
2018-07-21T09:16:36.043Z,33.76
2018-07-21T09:22:17.455Z,34.93
2018-07-21T09:24:52.003Z,34.68
2018-07-21T09:27:26.371Z,35.05
2018-07-21T09:30:00.737Z,35.45
2018-07-21T09:32:35.112Z,37.55
2018-07-21T09:35:09.503Z,36.38
2018-07-21T09:37:43.999Z,35.88
2018-07-21T09:40:18.547Z,35.76
2018-07-21T09:42:52.931Z,34.92
2018-07-21T09:45:27.279Z,35.39
2018-07-21T09:48:01.720Z,36.29
2018-07-21T09:50:36.126Z,37.91
2018-07-21T09:53:10.642Z,38.44
2018-07-21T09:55:45.191Z,35.08
2018-07-21T09:58:19.764Z,37.26
2018-07-21T10:00:59.744Z,37.09
2018-07-21T10:03:34.913Z,34.97
2018-07-21T10:06:09.375Z,35.51
2018-07-21T10:08:43.728Z,37.99
2018-07-21T10:11:18.256Z,37.26
2018-07-21T10:13:52.891Z,35.43
2018-07-21T10:16:27.456Z,35.65
2018-07-21T10:19:01.976Z,37.53
2018-07-21T10:21:36.575Z,37.67
2018-07-21T10:24:16.396Z,37.80
2018-07-21T10:26:56.303Z,39.93
2018-07-21T10:29:39.127Z,36.45
2018-07-21T10:32:13.928Z,37.87
2018-07-21T10:34:58.583Z,39.72
2018-07-21T10:37:34.303Z,36.64
2018-07-21T10:40:08.964Z,35.89
2018-07-21T10:42:43.621Z,36.69
2018-07-21T10:45:36.105Z,35.10
2018-07-21T10:48:10.672Z,34.38
2018-07-21T10:53:56.129Z,36.13
2018-07-21T10:56:38.319Z,38.56
2018-07-21T10:59:12.603Z,37.74
2018-07-21T11:01:47.348Z,39.90
2018-07-21T11:04:33.913Z,37.29
2018-07-21T11:10:07.548Z,36.45
2018-07-21T11:12:41.990Z,33.94
2018-07-21T11:15:27.522Z,33.40
2018-07-21T11:18:12.424Z,32.86
2018-07-21T11:20:46.990Z,33.86
2018-07-21T11:23:21.398Z,35.77
2018-07-21T11:26:06.052Z,35.16
2018-07-21T11:28:40.416Z,36.41
2018-07-21T11:31:15.010Z,35.57
2018-07-21T11:33:49.395Z,34.19
2018-07-21T11:36:23.848Z,34.83
2018-07-21T11:38:58.167Z,33.60
2018-07-21T11:41:32.532Z,35.34
2018-07-21T11:44:06.831Z,34.47
2018-07-21T11:46:41.193Z,35.53
2018-07-21T11:49:15.511Z,33.81
2018-07-21T11:51:49.910Z,33.55
2018-07-21T11:54:31.392Z,34.17
2018-07-21T11:57:06.065Z,32.60
2018-07-21T11:59:40.467Z,32.68
2018-07-21T12:02:14.791Z,32.06
2018-07-21T12:04:49.522Z,31.75
2018-07-21T12:07:23.975Z,32.09
2018-07-21T12:09:58.256Z,31.87
2018-07-21T12:12:34.844Z,31.54
2018-07-21T12:15:10.014Z,30.79
2018-07-21T12:17:44.410Z,29.86
2018-07-21T12:23:23.202Z,29.42
2018-07-21T12:29:15.941Z,30.10
2018-07-21T12:43:56.724Z,29.36
2018-07-21T12:46:31.163Z,29.20
2018-07-21T12:49:05.465Z,29.41
2018-07-21T12:51:39.956Z,29.76
2018-07-21T12:54:14.367Z,29.64
2018-07-21T12:56:48.666Z,29.45
2018-07-21T12:59:23.100Z,29.52
2018-07-21T13:01:57.468Z,28.76
2018-07-21T13:04:36.848Z,28.81
2018-07-21T13:07:12.295Z,28.41
2018-07-21T13:09:46.711Z,28.39
2018-07-21T13:12:21.221Z,27.94
2018-07-21T13:14:55.611Z,27.54
2018-07-21T13:17:30.422Z,27.95
2018-07-21T13:20:05.353Z,28.11
2018-07-21T13:22:40.767Z,28.47
2018-07-21T13:25:15.429Z,28.60
2018-07-21T13:27:50.032Z,28.65
2018-07-21T13:30:24.572Z,28.04
2018-07-21T13:32:58.989Z,27.98
2018-07-21T13:35:34.096Z,28.29
2018-07-21T13:38:08.584Z,28.34
2018-07-21T13:40:43.565Z,28.85
2018-07-21T13:43:18.063Z,29.05
2018-07-21T13:46:09.291Z,28.67
2018-07-21T13:48:43.869Z,29.08
2018-07-21T13:51:18.977Z,29.12
2018-07-21T13:53:53.593Z,28.82
2018-07-21T13:56:29.032Z,28.88
2018-07-21T13:59:03.588Z,29.11
2018-07-21T14:01:38.136Z,28.97
2018-07-21T14:04:12.592Z,29.57
2018-07-21T14:06:47.215Z,29.55
2018-07-21T14:09:32.100Z,29.27
2018-07-21T14:12:06.960Z,28.85
2018-07-21T14:14:54.136Z,28.73
2018-07-21T14:26:25.277Z,30.03
2018-07-21T14:28:59.785Z,30.17
2018-07-21T14:31:34.759Z,30.07
2018-07-21T14:34:09.328Z,29.80
2018-07-21T14:36:43.759Z,29.66
2018-07-21T14:39:18.299Z,28.96
2018-07-21T14:41:52.997Z,28.67
2018-07-21T14:44:27.188Z,28.28
2018-07-21T14:47:01.708Z,27.73
2018-07-21T14:49:36.187Z,27.20
2018-07-21T14:52:10.711Z,26.89
2018-07-21T14:54:45.198Z,26.57
2018-07-21T14:57:19.655Z,26.15
2018-07-21T14:59:55.291Z,25.87
2018-07-21T15:02:29.841Z,25.64
2018-07-21T15:05:04.366Z,25.49
2018-07-21T15:07:38.936Z,25.49
2018-07-21T15:10:13.645Z,25.41
2018-07-21T15:12:48.289Z,25.00
2018-07-21T15:15:22.849Z,24.87
2018-07-21T15:17:57.492Z,24.78
2018-07-21T15:20:32.299Z,24.61
2018-07-21T15:23:06.969Z,24.57
2018-07-21T15:25:41.722Z,24.48
2018-07-21T15:28:16.370Z,24.51
2018-07-21T15:30:50.885Z,24.71
2018-07-21T15:33:25.387Z,24.89
2018-07-21T15:36:00.273Z,24.72
2018-07-21T15:38:34.864Z,24.61
2018-07-21T15:41:09.364Z,24.46
2018-07-21T15:43:43.900Z,24.36
2018-07-21T15:52:16.384Z,24.59
2018-07-21T15:54:50.879Z,24.69
2018-07-21T15:57:25.329Z,24.67
2018-07-21T15:59:59.809Z,24.64
2018-07-21T16:02:34.309Z,24.82
2018-07-21T16:05:08.717Z,24.97
2018-07-21T16:07:43.060Z,25.12
2018-07-21T16:10:25.899Z,25.28
2018-07-21T16:13:00.339Z,25.16
2018-07-21T16:15:34.719Z,25.21
2018-07-21T16:18:09.125Z,25.24
2018-07-21T16:20:43.438Z,25.35
2018-07-21T16:23:17.860Z,25.38
2018-07-21T16:25:52.256Z,25.33
2018-07-21T16:28:26.531Z,25.50
2018-07-21T16:31:00.935Z,25.64
2018-07-21T16:33:35.408Z,25.78
2018-07-21T16:36:10.005Z,25.80
2018-07-21T16:38:44.796Z,25.84
2018-07-21T16:41:19.152Z,25.77
2018-07-21T16:43:53.666Z,25.74
2018-07-21T16:46:28.218Z,25.76
2018-07-21T16:49:02.693Z,25.68
2018-07-21T16:51:37.148Z,25.67
2018-07-21T16:54:11.685Z,25.62
2018-07-21T16:56:50.690Z,25.57
2018-07-21T16:59:25.540Z,25.60
2018-07-21T17:02:00.112Z,25.66
2018-07-21T17:04:34.542Z,25.78
2018-07-21T17:07:09.304Z,25.88
2018-07-21T17:09:43.884Z,25.67
2018-07-21T17:12:18.328Z,25.53
2018-07-21T17:14:52.793Z,25.57
2018-07-21T17:17:27.396Z,25.48
2018-07-21T17:20:01.908Z,25.35
2018-07-21T17:22:36.580Z,25.39
2018-07-21T17:25:11.241Z,25.32
2018-07-21T17:27:45.729Z,25.21
2018-07-21T17:30:20.264Z,25.10
2018-07-21T17:32:55.105Z,25.08
2018-07-21T17:35:29.577Z,25.02
2018-07-21T17:38:04.484Z,24.97
2018-07-21T17:40:39.040Z,24.95
2018-07-21T17:43:13.654Z,24.81
2018-07-21T17:45:48.115Z,24.82
2018-07-21T17:48:22.540Z,24.76
2018-07-21T17:50:57.114Z,24.75
2018-07-21T17:53:31.583Z,24.66
2018-07-21T17:56:06.185Z,24.75
2018-07-21T17:58:40.787Z,24.69
2018-07-21T18:01:15.588Z,24.65
2018-07-21T18:03:50.233Z,24.68
2018-07-21T18:06:24.840Z,24.53
2018-07-21T18:08:59.337Z,24.38
2018-07-21T18:11:40.801Z,24.27
2018-07-21T18:14:15.256Z,24.16
2018-07-21T18:16:49.801Z,24.07
2018-07-21T18:19:24.455Z,23.94
2018-07-21T18:21:58.877Z,23.74
2018-07-21T18:24:33.364Z,23.70
2018-07-21T18:27:08.001Z,23.59
2018-07-21T18:29:42.608Z,23.51
2018-07-21T18:32:17.385Z,23.43
2018-07-21T18:34:51.911Z,23.34
2018-07-21T18:37:26.265Z,23.29
2018-07-21T18:40:00.778Z,23.20
2018-07-21T18:42:35.296Z,23.13
2018-07-21T18:45:09.855Z,23.03
2018-07-21T18:47:44.508Z,22.95
2018-07-21T18:50:19.517Z,22.90
2018-07-21T18:52:53.982Z,22.85
2018-07-21T18:55:28.596Z,22.78
2018-07-21T18:58:03.188Z,22.76
2018-07-21T19:00:37.742Z,22.67
2018-07-21T19:03:12.208Z,22.63
2018-07-21T19:05:46.677Z,22.49
2018-07-21T19:08:25.332Z,22.37
2018-07-21T19:10:59.836Z,22.28
2018-07-21T19:13:34.435Z,22.19
2018-07-21T19:16:14.224Z,22.04
2018-07-21T19:18:48.762Z,21.92
2018-07-21T19:21:23.399Z,21.80
2018-07-21T19:23:57.862Z,21.74
2018-07-21T19:26:37.686Z,21.65
2018-07-21T19:29:11.985Z,21.54
2018-07-21T19:31:51.917Z,21.56
2018-07-21T19:34:31.912Z,21.55
2018-07-21T19:37:28.480Z,21.51
2018-07-21T19:40:03.352Z,21.38
2018-07-21T19:42:37.852Z,21.23
2018-07-21T19:45:12.848Z,21.13
2018-07-21T19:47:47.418Z,21.06
2018-07-21T19:50:21.960Z,21.01
2018-07-21T19:52:56.685Z,20.96
2018-07-21T19:55:31.101Z,20.94
2018-07-21T19:58:05.667Z,20.94
2018-07-21T20:00:40.271Z,20.99
2018-07-21T20:03:14.892Z,20.92
2018-07-21T20:05:49.348Z,20.98
2018-07-21T20:11:23.579Z,21.13
2018-07-21T20:14:01.931Z,21.28
2018-07-21T20:16:36.738Z,21.38
2018-07-21T20:19:11.240Z,21.43
2018-07-21T20:21:45.878Z,21.37
2018-07-21T20:24:20.373Z,21.45
2018-07-21T20:26:54.867Z,21.54
2018-07-21T20:29:29.528Z,21.59
2018-07-21T20:32:04.074Z,21.47
2018-07-21T20:34:38.606Z,21.35
2018-07-21T20:37:16.788Z,21.17
2018-07-21T20:39:51.828Z,21.14
2018-07-21T20:42:26.263Z,21.24
2018-07-21T20:45:00.817Z,21.21
2018-07-21T20:47:35.271Z,21.31
2018-07-21T20:50:09.831Z,21.31
2018-07-21T20:52:44.484Z,21.21
2018-07-21T20:55:19.260Z,21.08
2018-07-21T20:57:53.804Z,21.01
2018-07-21T21:00:28.511Z,20.86
2018-07-21T21:03:02.954Z,20.74
2018-07-21T21:05:39.092Z,20.72
2018-07-21T21:08:18.508Z,20.70
2018-07-21T21:11:04.392Z,20.63
2018-07-21T21:13:38.892Z,20.50
2018-07-21T21:16:13.388Z,20.38
2018-07-21T21:18:47.792Z,20.37
2018-07-21T21:21:22.296Z,20.30
2018-07-21T21:23:56.828Z,20.23
2018-07-21T21:29:40.966Z,20.11
2018-07-21T21:32:15.458Z,20.04
2018-07-21T21:34:50.113Z,19.98
2018-07-21T21:37:24.684Z,19.90
2018-07-21T21:39:59.193Z,19.83
2018-07-21T21:42:33.865Z,19.79
2018-07-21T21:45:08.393Z,19.81
2018-07-21T21:47:42.945Z,19.87
2018-07-21T21:50:17.544Z,19.84
2018-07-21T21:52:52.217Z,19.75
2018-07-21T21:55:26.916Z,19.68
2018-07-21T21:58:19.912Z,19.61
2018-07-21T22:04:03.163Z,19.52
2018-07-21T22:06:37.577Z,19.56
2018-07-21T22:09:12.351Z,19.60
2018-07-21T22:11:46.857Z,19.62
2018-07-21T22:14:21.240Z,19.68
2018-07-21T22:16:55.600Z,19.72
2018-07-21T22:19:30.090Z,19.75
2018-07-21T22:22:04.704Z,19.73
2018-07-21T22:24:39.396Z,19.76
2018-07-21T22:27:14.020Z,19.76
2018-07-21T22:29:48.587Z,19.80
2018-07-21T22:32:23.177Z,19.84
2018-07-21T22:34:57.773Z,19.81
2018-07-21T22:37:32.407Z,19.80
2018-07-21T22:40:06.881Z,19.72
2018-07-21T22:42:41.403Z,19.65
2018-07-21T22:45:15.998Z,19.66
2018-07-21T22:47:50.550Z,19.65
2018-07-21T22:50:25.474Z,19.65
2018-07-21T22:53:00.145Z,19.66
2018-07-21T22:55:34.652Z,19.59
2018-07-21T22:58:09.120Z,19.62
2018-07-21T23:00:43.893Z,19.56
2018-07-21T23:03:18.607Z,19.51
2018-07-21T23:05:57.156Z,19.41
2018-07-21T23:08:33.664Z,19.38
2018-07-21T23:11:08.144Z,19.30
2018-07-21T23:13:42.634Z,19.19
2018-07-21T23:16:17.198Z,19.08
2018-07-21T23:18:51.713Z,19.05
2018-07-21T23:21:27.197Z,19.02
2018-07-21T23:24:01.677Z,18.99
2018-07-21T23:26:36.267Z,19.00
2018-07-21T23:29:10.748Z,19.03
2018-07-21T23:31:45.336Z,19.03
2018-07-21T23:34:19.881Z,19.08
2018-07-21T23:36:54.784Z,19.14
2018-07-21T23:39:29.468Z,19.17
2018-07-21T23:42:04.126Z,19.21
2018-07-21T23:44:38.664Z,19.15
2018-07-21T23:47:13.372Z,19.15
2018-07-21T23:49:47.981Z,19.16
2018-07-21T23:52:22.544Z,19.16
2018-07-21T23:54:57.163Z,19.13
2018-07-21T23:57:31.953Z,19.17
